Time;durP1;ratioP1;P1;durP2;ratioP2;P2;SDS_P1;SDS_P2;PMS_P1;PMS_P2;Temp;Humidity;BMP_temperature;BMP_pressure;BME280_temperature;BME280_humidity;BME280_pressure;Samples;Min_cycle;Max_cycle;Signal;HPM_P1;HPM_P2
2021/12/01 00:00:13;;;;;;;1.30;1.20;;;;;;;20.17;49.13;96856.63;5034256;28;20284;-80
2021/12/01 00:02:41;;;;;;;1.53;1.43;;;;;;;20.18;49.21;96858.34;5065458;28;20643;-79
2021/12/01 00:05:11;;;;;;;1.40;1.30;;;;;;;19.85;49.24;96802.25;5054281;28;20193;-81
2021/12/01 00:07:38;;;;;;;1.10;1.10;;;;;;;19.83;49.10;96791.16;5028127;28;20228;-81
2021/12/01 00:10:09;;;;;;;1.47;1.37;;;;;;;19.69;49.24;96771.25;5053405;28;20251;-80
2021/12/01 00:12:35;;;;;;;1.30;1.20;;;;;;;17.97;48.75;96470.59;5037130;28;20248;-81
2021/12/01 00:15:09;;;;;;;1.13;1.10;;;;;;;20.19;49.12;96847.28;5052348;28;20217;-80
2021/12/01 00:17:35;;;;;;;1.50;1.40;;;;;;;19.69;49.10;96763.59;5053148;28;20271;-80
2021/12/01 00:20:04;;;;;;;1.40;1.30;;;;;;;20.19;49.29;96846.44;5040315;28;20201;-80
2021/12/01 00:22:31;;;;;;;1.70;1.40;;;;;;;20.18;48.99;96848.13;5052719;28;20260;-81
2021/12/01 00:24:59;;;;;;;1.30;1.20;;;;;;;19.90;49.19;96795.56;5060495;28;20196;-81
2021/12/01 00:27:29;;;;;;;1.30;1.20;;;;;;;19.71;49.07;96769.56;5052045;28;20205;-80
2021/12/01 00:29:57;;;;;;;1.30;1.20;;;;;;;19.84;49.23;96795.41;5051236;28;20201;-80
2021/12/01 00:32:24;;;;;;;1.83;1.20;;;;;;;20.16;49.32;96851.47;5053209;28;20600;-80
2021/12/01 00:34:52;;;;;;;1.30;1.20;;;;;;;19.70;49.22;96767.88;5062142;28;20251;-80
2021/12/01 00:37:18;;;;;;;1.20;1.10;;;;;;;19.89;49.28;96809.13;5051885;28;20278;-80
2021/12/01 00:39:45;;;;;;;1.20;1.10;;;;;;;19.55;49.30;96744.56;5034498;28;20208;-80
2021/12/01 00:42:19;;;;;;;1.03;1.03;;;;;;;19.42;49.21;96707.69;5036042;28;20227;-80
2021/12/01 00:44:47;;;;;;;1.70;1.20;;;;;;;20.15;49.28;96834.44;5052634;28;20224;-80
2021/12/01 00:47:14;;;;;;;1.13;1.13;;;;;;;19.87;49.30;96790.38;5058432;28;20201;-80
2021/12/01 00:49:41;;;;;;;2.20;1.10;;;;;;;20.16;49.18;96828.53;5052682;28;20204;-80
2021/12/01 00:52:08;;;;;;;1.37;1.27;;;;;;;20.16;49.30;96826.81;5052250;28;20280;-80
2021/12/01 00:54:37;;;;;;;1.70;1.60;;;;;;;19.94;49.30;96783.75;5053264;28;20660;-80
2021/12/01 00:57:04;;;;;;;1.40;1.30;;;;;;;19.44;49.27;96700.09;5055170;28;20701;-80
2021/12/01 00:59:34;;;;;;;1.57;1.27;;;;;;;20.17;49.15;96817.47;5030077;28;20209;-80
2021/12/01 01:02:00;;;;;;;1.30;1.20;;;;;;;20.18;49.14;96811.53;5058983;28;20603;-80
2021/12/01 01:04:27;;;;;;;1.30;1.20;;;;;;;18.53;49.21;96533.97;5060413;28;20297;-80
2021/12/01 01:06:54;;;;;;;1.30;1.20;;;;;;;19.87;49.12;96767.44;5042345;28;20203;-80
2021/12/01 01:09:20;;;;;;;1.27;1.20;;;;;;;20.18;49.18;96799.66;5060612;28;20197;-80
2021/12/01 01:17:28;;;;;;;1.40;1.30;;;;;;;19.35;49.30;96657.44;5061617;28;20692;-80
2021/12/01 01:19:55;;;;;;;1.33;1.23;;;;;;;19.66;49.26;96721.03;5019143;28;20240;-80
2021/12/01 01:22:22;;;;;;;1.20;1.10;;;;;;;20.15;49.69;96806.38;5027846;28;20270;-80
2021/12/01 01:24:48;;;;;;;1.33;1.20;;;;;;;19.82;49.12;96747.75;5052691;28;20251;-80
2021/12/01 01:27:15;;;;;;;1.10;1.10;;;;;;;19.65;49.23;96716.78;5034849;28;20718;-80
2021/12/01 01:29:41;;;;;;;1.10;1.10;;;;;;;20.14;49.36;96804.66;5019088;28;20236;-80
2021/12/01 01:32:08;;;;;;;1.30;1.20;;;;;;;20.14;48.92;96789.34;5051757;28;20222;-81
2021/12/01 01:34:35;;;;;;;1.23;1.20;;;;;;;19.68;49.56;96714.28;5053333;28;20292;-80
2021/12/01 01:37:01;;;;;;;1.17;1.10;;;;;;;20.14;49.28;96785.13;5051814;28;20688;-80
2021/12/01 01:39:28;;;;;;;1.37;1.27;;;;;;;19.40;49.28;96653.31;5051922;28;20255;-81
2021/12/01 01:42:00;;;;;;;1.20;1.10;;;;;;;20.14;49.36;96777.47;5035910;28;20255;-80
2021/12/01 01:44:27;;;;;;;1.40;1.20;;;;;;;20.14;49.64;96777.47;5051614;28;20193;-81
2021/12/01 01:46:55;;;;;;;1.00;1.00;;;;;;;20.16;49.27;96775.78;5051321;28;20197;-81
2021/12/01 01:49:34;;;;;;;1.10;1.10;;;;;;;19.84;49.42;96723.19;5035579;28;20237;-80
2021/12/01 01:52:01;;;;;;;1.00;1.00;;;;;;;20.16;49.63;96772.41;5037515;28;20239;-80
2021/12/01 01:54:28;;;;;;;1.10;1.00;;;;;;;20.16;49.24;96772.41;5050743;28;20572;-79
2021/12/01 01:56:54;;;;;;;1.10;1.00;;;;;;;18.93;49.18;96558.72;5053067;28;20656;-81
2021/12/01 01:59:21;;;;;;;1.10;1.00;;;;;;;19.73;49.31;96692.34;5035398;28;20201;-80
2021/12/01 02:01:55;;;;;;;1.27;1.17;;;;;;;19.39;49.30;96618.47;5021532;28;20243;-81
2021/12/01 02:04:22;;;;;;;1.07;1.07;;;;;;;18.90;48.99;96531.53;5045688;28;20299;-81
2021/12/01 02:06:49;;;;;;;1.00;1.00;;;;;;;18.62;49.26;96480.75;5034387;28;20235;-80
2021/12/01 02:09:18;;;;;;;1.10;1.10;;;;;;;20.14;49.33;96741.75;5054946;28;20304;-80
2021/12/01 02:11:45;;;;;;;1.13;1.03;;;;;;;19.85;49.34;96689.19;5047274;28;20228;-80
2021/12/01 02:14:11;;;;;;;1.70;1.20;;;;;;;18.45;49.22;96454.06;5042352;28;20746;-81
2021/12/01 02:16:38;;;;;;;1.00;1.00;;;;;;;19.65;49.42;96649.63;5053510;28;20273;-81
2021/12/01 02:19:05;;;;;;;1.20;1.13;;;;;;;20.12;49.28;96727.19;5023837;28;20611;-80
2021/12/01 02:21:32;;;;;;;1.37;1.27;;;;;;;19.32;49.24;96582.63;5054876;28;20232;-81
2021/12/01 02:23:59;;;;;;;1.30;1.20;;;;;;;20.12;49.34;96709.34;5040710;28;20248;-81
2021/12/01 02:26:27;;;;;;;1.20;1.10;;;;;;;19.86;49.46;96673.06;5056844;28;20227;-79
2021/12/01 02:28:55;;;;;;;1.00;1.00;;;;;;;19.82;49.56;96644.09;5050206;28;20682;-81
2021/12/01 02:31:25;;;;;;;1.20;1.13;;;;;;;20.13;49.37;96689.00;5025397;28;20266;-80
2021/12/01 02:33:53;;;;;;;1.23;1.13;;;;;;;19.58;49.30;96609.56;5046219;28;20224;-81
2021/12/01 02:36:19;;;;;;;1.00;1.00;;;;;;;20.15;49.34;96699.22;5049644;28;20229;-82
2021/12/01 02:38:47;;;;;;;1.53;1.17;;;;;;;19.32;49.44;96555.47;5053201;28;20204;-80
2021/12/01 02:41:15;;;;;;;1.03;1.03;;;;;;;19.79;49.28;96643.16;5052304;28;20659;-80
2021/12/01 02:43:47;;;;;;;1.20;1.10;;;;;;;19.58;48.98;96597.69;5060894;28;20642;-80
2021/12/01 02:46:14;;;;;;;1.00;1.00;;;;;;;20.15;49.26;96689.03;5057099;28;20655;-80
2021/12/01 02:48:44;;;;;;;0.90;0.90;;;;;;;20.15;49.31;96684.78;5053389;28;20283;-81
2021/12/01 02:51:13;;;;;;;0.93;0.93;;;;;;;20.15;49.26;96682.25;5049578;28;20243;-80
2021/12/01 02:53:41;;;;;;;1.43;1.30;;;;;;;19.21;49.22;96515.25;5042563;28;20293;-81
2021/12/01 02:56:08;;;;;;;1.13;1.10;;;;;;;18.81;49.59;96441.34;5021533;28;20216;-81
2021/12/01 02:58:40;;;;;;;1.10;1.10;;;;;;;19.63;49.50;96588.44;5038848;28;20731;-80
2021/12/01 03:01:13;;;;;;;1.10;1.10;;;;;;;20.16;49.42;96683.13;5067320;28;20200;-79
2021/12/01 03:03:40;;;;;;;1.03;1.03;;;;;;;20.14;49.25;96672.88;5045225;28;20708;-80
2021/12/01 03:06:06;;;;;;;1.10;1.10;;;;;;;19.56;49.39;96575.53;5031038;28;20194;-81
2021/12/01 03:08:36;;;;;;;1.10;1.10;;;;;;;19.66;49.43;96590.19;5014026;28;20248;-78
2021/12/01 03:11:03;;;;;;;1.00;1.00;;;;;;;20.13;49.46;96670.28;5014313;28;20212;-80
2021/12/01 03:13:30;;;;;;;1.07;1.00;;;;;;;20.13;49.24;96663.47;5031358;28;20267;-81
2021/12/01 03:15:56;;;;;;;1.10;1.10;;;;;;;19.79;49.36;96605.78;5048761;28;20267;-79
2021/12/01 03:18:23;;;;;;;1.20;1.10;;;;;;;20.12;49.53;96653.22;5049644;28;20640;-81
2021/12/01 03:20:51;;;;;;;1.00;1.00;;;;;;;20.12;49.43;96655.75;5050668;28;20201;-80
2021/12/01 03:23:17;;;;;;;1.00;1.00;;;;;;;20.12;49.42;96643.00;5051356;28;20224;-80
2021/12/01 03:25:46;;;;;;;1.27;1.17;;;;;;;20.13;49.43;96639.69;5050254;28;20617;-79
2021/12/01 03:28:14;;;;;;;1.00;1.00;;;;;;;19.60;49.15;96552.69;5015398;28;20205;-80
2021/12/01 03:30:40;;;;;;;0.90;0.90;;;;;;;20.13;49.54;96643.06;5033908;28;20204;-81
2021/12/01 03:33:13;;;;;;;1.07;1.07;;;;;;;18.80;49.63;96406.56;5049613;28;20775;-80
2021/12/01 03:35:44;;;;;;;1.00;1.00;;;;;;;19.80;49.31;96576.91;5029272;28;20264;-79
2021/12/01 03:38:11;;;;;;;1.13;1.00;;;;;;;19.02;49.28;96441.81;5030231;28;20205;-81
2021/12/01 03:40:38;;;;;;;1.10;1.10;;;;;;;20.08;49.37;96621.69;5013295;28;20209;-81
2021/12/01 03:43:04;;;;;;;1.10;1.00;;;;;;;18.61;49.29;96395.09;5014019;28;20233;-80
2021/12/01 03:45:31;;;;;;;1.00;1.00;;;;;;;17.40;49.42;96204.84;5044294;28;20193;-81
2021/12/01 03:48:01;;;;;;;1.07;1.07;;;;;;;20.15;49.30;96638.00;5033350;28;20270;-81
2021/12/01 03:50:28;;;;;;;1.10;1.10;;;;;;;19.84;49.38;96580.41;5049962;28;20247;-80
2021/12/01 03:52:57;;;;;;;0.97;0.97;;;;;;;20.15;49.41;96626.13;5050081;28;20228;-80
2021/12/01 03:55:27;;;;;;;1.07;1.00;;;;;;;20.15;49.40;96628.69;5049376;28;20701;-80
2021/12/01 03:57:55;;;;;;;1.07;1.07;;;;;;;19.85;49.44;96574.47;5050001;28;20232;-80
2021/12/01 04:00:22;;;;;;;1.00;1.00;;;;;;;19.08;49.40;96441.97;5039990;28;20200;-80
2021/12/01 04:02:49;;;;;;;0.97;0.97;;;;;;;20.13;49.43;96622.66;5061433;28;20600;-80
2021/12/01 04:05:15;;;;;;;1.20;1.10;;;;;;;19.81;49.55;96560.78;5055304;28;20192;-80
2021/12/01 04:07:42;;;;;;;1.03;1.03;;;;;;;19.49;49.28;96502.31;5049497;28;20189;-81
2021/12/01 04:10:13;;;;;;;0.90;0.90;;;;;;;20.11;49.59;96605.59;5033646;28;20205;-80
2021/12/01 04:12:42;;;;;;;1.10;1.10;;;;;;;19.80;49.32;96541.22;5050838;28;20262;-81
2021/12/01 04:15:14;;;;;;;1.00;1.00;;;;;;;18.05;49.56;96246.28;5049247;28;20197;-81
2021/12/01 04:17:42;;;;;;;1.07;1.03;;;;;;;20.11;49.20;96595.38;5049374;28;20201;-78
2021/12/01 04:20:16;;;;;;;0.97;0.97;;;;;;;20.11;49.55;96591.16;5049520;28;20227;-81
2021/12/01 04:22:46;;;;;;;1.20;1.10;;;;;;;20.12;49.63;96584.34;5050508;28;20212;-81
2021/12/01 04:25:13;;;;;;;1.00;1.00;;;;;;;20.11;49.46;96580.97;5050252;28;20595;-78
2021/12/01 04:27:45;;;;;;;1.20;1.10;;;;;;;19.76;49.38;96516.50;5050535;28;20302;-81
2021/12/01 04:30:14;;;;;;;0.87;0.87;;;;;;;19.89;49.45;96538.84;5049354;28;20205;-80
2021/12/01 04:35:17;;;;;;;1.00;1.00;;;;;;;19.87;49.53;96521.81;4968915;28;20212;-84
2021/12/01 04:37:44;;;;;;;1.07;1.07;;;;;;;19.72;49.45;96491.75;4954477;28;20312;-84
2021/12/01 04:40:11;;;;;;;1.03;1.03;;;;;;;19.90;49.65;96517.63;4937662;28;20227;-83
2021/12/01 04:42:38;;;;;;;1.00;1.00;;;;;;;19.77;49.06;96495.28;4936248;28;20734;-83
2021/12/01 04:45:08;;;;;;;1.00;1.00;;;;;;;20.14;49.29;96545.34;4958711;28;20202;-83
2021/12/01 04:47:41;;;;;;;0.83;0.83;;;;;;;19.12;49.55;96374.97;4992906;28;20219;-83
2021/12/01 04:50:08;;;;;;;1.00;1.00;;;;;;;19.57;49.35;96460.03;4959683;28;20253;-83
2021/12/01 04:52:34;;;;;;;1.00;1.00;;;;;;;19.14;49.45;96389.47;4959496;28;20672;-83
2021/12/01 04:55:01;;;;;;;0.90;0.90;;;;;;;20.04;49.42;96540.84;4959563;28;20246;-83
2021/12/01 04:57:27;;;;;;;0.80;0.80;;;;;;;19.80;50.00;96502.97;4974832;28;20246;-83
2021/12/01 04:59:54;;;;;;;0.90;0.90;;;;;;;19.79;49.55;96511.47;4958908;28;20269;-83
2021/12/01 05:02:21;;;;;;;0.90;0.87;;;;;;;19.86;49.36;96517.53;4991563;28;20234;-84
2021/12/01 05:04:48;;;;;;;1.00;1.00;;;;;;;20.06;49.68;96546.84;4943324;28;20269;-82
2021/12/01 05:07:14;;;;;;;0.90;0.90;;;;;;;19.74;49.57;96485.00;4991075;28;20692;-83
2021/12/01 05:09:41;;;;;;;0.90;0.90;;;;;;;19.76;49.69;96485.91;4959275;28;20219;-84
2021/12/01 05:12:08;;;;;;;1.00;1.00;;;;;;;19.79;49.30;96490.19;4958611;28;20199;-83
2021/12/01 05:14:35;;;;;;;1.00;1.00;;;;;;;19.88;49.54;96495.47;4959257;28;20289;-81
2021/12/01 05:17:04;;;;;;;1.10;1.00;;;;;;;19.74;49.46;96474.81;4959316;28;20258;-81
2021/12/01 05:19:31;;;;;;;1.00;1.00;;;;;;;19.94;49.72;96506.66;4975064;28;20230;-83
2021/12/01 05:21:57;;;;;;;1.00;1.00;;;;;;;19.91;49.26;96500.63;4948814;28;20627;-84
2021/12/01 05:24:24;;;;;;;1.00;1.00;;;;;;;19.91;49.53;96493.88;4958163;28;20250;-83
2021/12/01 05:26:51;;;;;;;1.07;1.07;;;;;;;19.95;49.43;96487.09;4958540;28;20234;-83
2021/12/01 05:29:18;;;;;;;1.20;1.00;;;;;;;19.71;49.48;96443.31;4975375;28;20245;-83
2021/12/01 05:31:44;;;;;;;0.90;0.90;;;;;;;19.42;49.46;96390.94;4958855;28;20695;-84
2021/12/01 05:34:11;;;;;;;1.00;1.00;;;;;;;19.49;49.47;96408.91;4974576;28;20234;-83
2021/12/01 05:36:38;;;;;;;1.00;1.00;;;;;;;19.60;49.26;96424.41;4991736;28;20301;-84
2021/12/01 05:39:04;;;;;;;0.90;0.90;;;;;;;19.64;49.53;96421.97;4991725;28;20203;-84
2021/12/01 05:41:31;;;;;;;1.20;1.10;;;;;;;20.09;49.55;96495.00;4976755;28;20238;-83
2021/12/01 05:43:57;;;;;;;1.00;1.00;;;;;;;19.50;49.62;96399.56;4981239;28;20708;-84
2021/12/01 05:46:26;;;;;;;0.90;0.90;;;;;;;19.85;49.06;96444.44;4961647;28;20226;-84
2021/12/01 05:48:54;;;;;;;1.27;1.00;;;;;;;19.79;49.48;96426.47;4969109;28;20203;-84
2021/12/01 05:51:21;;;;;;;1.03;1.00;;;;;;;19.96;49.40;96460.81;4976930;28;20215;-83
2021/12/01 05:53:48;;;;;;;0.93;0.93;;;;;;;19.52;49.55;96380.94;4975723;28;20218;-84
2021/12/01 05:56:15;;;;;;;0.90;0.90;;;;;;;20.02;49.70;96461.75;4954917;28;20247;-83
2021/12/01 05:58:41;;;;;;;1.37;1.17;;;;;;;19.92;49.53;96446.25;4945027;28;20234;-84
2021/12/01 06:01:08;;;;;;;0.70;0.70;;;;;;;19.98;49.50;96449.78;4944934;28;20202;-82
2021/12/01 06:03:38;;;;;;;0.90;0.90;;;;;;;19.77;49.50;96407.72;4946106;28;20297;-83
2021/12/01 06:06:04;;;;;;;1.00;1.00;;;;;;;19.77;49.40;96407.72;4977979;28;20289;-84
2021/12/01 06:08:31;;;;;;;0.90;0.90;;;;;;;20.02;49.16;96438.81;4960366;28;20230;-84
2021/12/01 06:10:58;;;;;;;0.90;0.90;;;;;;;19.70;49.42;96372.78;4960555;28;20245;-83
2021/12/01 06:13:25;;;;;;;0.90;0.90;;;;;;;20.14;49.56;96434.78;4946048;28;20227;-82
2021/12/01 06:15:52;;;;;;;0.90;0.90;;;;;;;19.66;49.50;96348.06;4964166;28;20195;-88
2021/12/01 06:18:19;;;;;;;0.90;0.90;;;;;;;19.28;49.88;96282.81;4964997;28;20203;-89
2021/12/01 06:20:45;;;;;;;0.93;0.93;;;;;;;18.80;49.43;96193.59;4947093;28;20222;-89
2021/12/01 06:23:13;;;;;;;0.90;0.90;;;;;;;18.75;49.35;96172.31;4977726;28;20234;-83
2021/12/01 06:25:40;;;;;;;2.50;0.90;;;;;;;19.75;49.53;96332.94;4981585;28;20266;-83
2021/12/01 06:28:07;;;;;;;1.27;1.03;;;;;;;19.94;49.20;96363.88;4959847;28;20199;-81
2021/12/01 06:30:34;;;;;;;3.50;1.10;;;;;;;20.05;49.49;96376.81;4946008;28;20207;-82
2021/12/01 06:33:01;;;;;;;3.90;1.50;;;;;;;19.88;49.57;96342.50;4966690;28;20243;-82
2021/12/01 06:35:28;;;;;;;2.70;1.27;;;;;;;20.18;49.74;96388.09;4975796;28;20261;-82
2021/12/01 06:37:55;;;;;;;6.13;1.40;;;;;;;20.04;49.70;96359.78;4977410;28;20624;-84
2021/12/01 06:40:23;;;;;;;12.87;1.53;;;;;;;19.97;49.96;96363.06;4976946;28;20743;-84
2021/12/01 06:42:50;;;;;;;3.80;1.20;;;;;;;19.94;51.07;96357.91;4977187;28;20226;-85
2021/12/01 06:45:17;;;;;;;6.70;1.50;;;;;;;19.84;51.94;96344.13;4976780;28;20230;-86
2021/12/01 06:47:43;;;;;;;8.60;1.40;;;;;;;19.88;52.13;96338.28;4942067;28;20630;-85
2021/12/01 06:50:10;;;;;;;3.57;1.50;;;;;;;19.72;52.35;96302.31;4961751;28;20246;-85
2021/12/01 06:52:38;;;;;;;1.90;1.20;;;;;;;20.09;51.75;96359.84;4964326;28;20474;-84
2021/12/01 06:55:05;;;;;;;5.50;1.23;;;;;;;19.78;51.06;96308.34;4962911;28;20616;-84
2021/12/01 06:57:32;;;;;;;3.27;1.33;;;;;;;19.57;50.30;96269.75;4978371;28;20254;-85
2021/12/01 06:59:59;;;;;;;3.37;1.47;;;;;;;20.10;49.66;96356.47;4960509;28;20227;-85
2021/12/01 07:02:25;;;;;;;3.83;1.37;;;;;;;19.74;49.02;96290.41;4966994;28;20677;-84
2021/12/01 07:04:52;;;;;;;2.17;1.40;;;;;;;20.11;48.75;96356.50;4945603;28;20223;-85
2021/12/01 07:07:19;;;;;;;1.53;1.30;;;;;;;19.99;48.20;96324.00;4970566;28;20195;-85
2021/12/01 07:09:49;;;;;;;2.73;1.50;;;;;;;19.96;48.28;96316.28;4962541;28;20237;-82
2021/12/01 07:12:16;;;;;;;1.77;1.40;;;;;;;19.86;48.43;96301.69;4995194;28;20692;-83
2021/12/01 07:14:43;;;;;;;3.63;1.40;;;;;;;19.79;48.50;96286.28;4974397;28;20297;-84
2021/12/01 07:17:09;;;;;;;3.43;1.60;;;;;;;20.11;48.50;96335.25;4962242;28;20254;-84
2021/12/01 07:19:36;;;;;;;2.80;1.50;;;;;;;20.20;48.15;96353.28;4987367;28;20205;-84
2021/12/01 07:22:03;;;;;;;3.17;1.30;;;;;;;19.98;48.69;96313.78;4985849;28;20230;-83
2021/12/01 07:24:29;;;;;;;1.83;1.30;;;;;;;19.97;48.79;96296.75;4961683;28;20261;-84
2021/12/01 07:26:56;;;;;;;2.73;1.43;;;;;;;19.86;48.73;96267.69;4946296;28;20270;-81
2021/12/01 07:29:24;;;;;;;1.40;1.13;;;;;;;19.56;48.74;96208.56;4940038;28;20202;-85
2021/12/01 07:31:52;;;;;;;3.63;1.40;;;;;;;19.94;49.11;96271.22;4980785;28;20277;-84
2021/12/01 07:34:18;;;;;;;4.87;1.40;;;;;;;19.83;49.10;96255.75;4960321;28;20266;-83
2021/12/01 07:36:45;;;;;;;4.97;1.70;;;;;;;20.02;49.01;96279.00;4961572;28;20222;-83
2021/12/01 07:39:11;;;;;;;5.77;1.70;;;;;;;19.99;49.48;96274.72;4980674;28;20222;-83
2021/12/01 07:41:38;;;;;;;2.73;1.40;;;;;;;19.87;48.79;96241.38;4963321;28;20707;-84
2021/12/01 07:44:05;;;;;;;8.23;1.70;;;;;;;20.17;49.54;96285.22;4962020;28;20273;-83
2021/12/01 07:46:31;;;;;;;6.33;1.77;;;;;;;19.89;49.75;96234.59;4967518;28;20199;-84
2021/12/01 07:48:58;;;;;;;6.20;1.60;;;;;;;19.96;49.67;96244.06;4951732;28;20203;-84
2021/12/01 07:51:24;;;;;;;7.20;1.50;;;;;;;19.91;49.54;96232.94;4953590;28;20282;-84
2021/12/01 07:53:52;;;;;;;4.17;1.77;;;;;;;20.01;49.72;96242.41;4960131;28;20303;-84
2021/12/01 07:56:19;;;;;;;3.53;1.53;;;;;;;19.80;49.93;96216.59;4969940;28;20258;-84
2021/12/01 07:58:46;;;;;;;3.40;1.60;;;;;;;19.78;49.67;96216.56;4952210;28;20282;-84
2021/12/01 08:01:14;;;;;;;2.93;1.50;;;;;;;19.79;49.71;96212.34;4969896;28;20195;-84
2021/12/01 08:03:41;;;;;;;5.53;1.53;;;;;;;19.86;49.71;96221.78;4958443;28;20927;-85
2021/12/01 08:06:08;;;;;;;5.63;1.43;;;;;;;19.91;49.59;96230.38;4959374;28;20234;-83
2021/12/01 08:08:34;;;;;;;5.03;1.20;;;;;;;20.03;49.52;96248.41;4951243;28;20246;-82
2021/12/01 08:11:01;;;;;;;1.53;1.10;;;;;;;19.92;49.87;96235.50;4974437;28;20206;-82
2021/12/01 08:13:28;;;;;;;2.30;1.40;;;;;;;20.19;49.81;96267.38;4963495;28;20315;-84
2021/12/01 08:15:55;;;;;;;1.77;1.27;;;;;;;19.35;49.86;96125.03;4978059;28;20573;-84
2021/12/01 08:18:21;;;;;;;3.20;1.43;;;;;;;20.04;49.98;96239.06;4974754;28;20257;-84
2021/12/01 08:20:48;;;;;;;3.17;1.50;;;;;;;20.00;49.70;96238.16;4982621;28;20226;-84
2021/12/01 08:23:15;;;;;;;2.27;1.30;;;;;;;19.99;50.01;96229.66;4959585;28;20255;-83
2021/12/01 08:25:42;;;;;;;3.90;1.50;;;;;;;19.88;49.84;96217.59;4971980;28;20226;-83
2021/12/01 08:28:08;;;;;;;1.83;1.30;;;;;;;19.88;49.78;96215.03;4959174;28;20294;-83
2021/12/01 08:30:35;;;;;;;3.40;1.30;;;;;;;19.92;49.87;96237.19;4971174;28;20601;-82
2021/12/01 08:33:01;;;;;;;4.53;1.60;;;;;;;19.87;49.38;96224.38;4959085;28;20301;-84
2021/12/01 08:35:28;;;;;;;4.10;1.33;;;;;;;20.07;49.82;96260.34;4958923;28;20229;-84
2021/12/01 08:37:55;;;;;;;1.80;1.20;;;;;;;19.24;49.87;96120.53;4975086;28;20214;-84
2021/12/01 08:40:21;;;;;;;2.93;1.30;;;;;;;19.85;49.86;96228.59;4972606;28;20199;-84
2021/12/01 08:42:48;;;;;;;2.03;1.50;;;;;;;20.04;50.14;96267.97;4959100;28;20234;-84
2021/12/01 08:45:15;;;;;;;3.00;1.30;;;;;;;19.91;50.10;96231.25;4951817;28;20230;-84
2021/12/01 08:47:41;;;;;;;3.33;1.47;;;;;;;19.64;50.24;96190.03;4974913;28;20195;-83
2021/12/01 08:50:09;;;;;;;2.27;1.50;;;;;;;19.78;49.90;96214.03;4959568;28;20202;-84
2021/12/01 08:52:36;;;;;;;3.47;1.30;;;;;;;19.86;50.10;96211.59;4963097;28;20229;-82
2021/12/01 08:55:03;;;;;;;3.43;1.40;;;;;;;19.95;50.33;96227.91;4942315;28;20561;-86
2021/12/01 08:57:29;;;;;;;1.73;1.20;;;;;;;19.93;50.12;96221.06;4969588;28;20227;-86
2021/12/01 08:59:56;;;;;;;1.77;1.30;;;;;;;19.52;49.95;96146.53;4995596;28;20247;-86
2021/12/01 09:02:23;;;;;;;1.57;1.27;;;;;;;19.81;50.04;96198.78;4965713;28;20227;-86
2021/12/01 09:04:52;;;;;;;2.87;1.40;;;;;;;19.84;50.14;96193.72;4959367;28;20580;-82
2021/12/01 09:07:19;;;;;;;1.40;1.30;;;;;;;20.19;49.94;96241.88;4970844;28;20242;-84
2021/12/01 09:09:46;;;;;;;2.07;1.50;;;;;;;19.85;50.06;96175.06;4975635;28;20199;-84
2021/12/01 09:12:14;;;;;;;2.80;1.30;;;;;;;19.87;50.05;96180.19;4956996;28;20203;-84
2021/12/01 09:14:42;;;;;;;1.93;1.50;;;;;;;20.02;49.72;96197.38;4958080;28;20218;-84
2021/12/01 09:17:10;;;;;;;2.13;1.23;;;;;;;19.88;50.10;96164.91;4960975;28;20273;-84
2021/12/01 09:19:36;;;;;;;3.37;1.40;;;;;;;19.98;50.01;96191.38;4978513;28;20202;-84
2021/12/01 09:22:03;;;;;;;4.37;1.33;;;;;;;19.98;49.92;96176.94;4963613;28;20226;-84
2021/12/01 09:24:29;;;;;;;3.40;1.63;;;;;;;19.82;50.16;96143.56;4962792;28;20223;-84
2021/12/01 09:26:56;;;;;;;2.30;1.30;;;;;;;19.98;49.96;96174.38;4950885;28;20199;-84
2021/12/01 09:29:23;;;;;;;2.87;1.33;;;;;;;19.99;50.04;96171.00;4970882;28;20199;-84
2021/12/01 09:31:50;;;;;;;3.30;1.30;;;;;;;19.90;50.01;96150.47;4967507;28;20203;-85
2021/12/01 09:34:16;;;;;;;2.07;1.30;;;;;;;19.86;49.96;96147.84;4962067;28;20238;-84
2021/12/01 09:36:43;;;;;;;3.50;1.60;;;;;;;19.82;50.29;96134.25;4963480;28;20237;-84
2021/12/01 09:39:09;;;;;;;1.63;1.17;;;;;;;19.93;49.99;96147.97;4963937;28;20238;-84
2021/12/01 09:41:36;;;;;;;2.90;1.33;;;;;;;19.68;50.00;96102.59;4960470;28;20234;-84
2021/12/01 09:44:03;;;;;;;1.20;1.10;;;;;;;20.16;50.18;96172.97;4943901;28;20254;-83
2021/12/01 09:46:30;;;;;;;2.03;1.40;;;;;;;19.95;50.30;96132.69;4979813;28;20688;-84
2021/12/01 09:48:58;;;;;;;1.63;1.30;;;;;;;20.05;50.17;96141.31;4961236;28;20198;-82
2021/12/01 09:51:26;;;;;;;1.77;1.30;;;;;;;19.72;50.12;96076.31;4977397;28;20684;-84
2021/12/01 09:53:53;;;;;;;1.30;1.20;;;;;;;19.93;49.64;96116.53;4972805;28;20249;-84
2021/12/01 09:56:20;;;;;;;6.70;1.70;;;;;;;19.99;48.27;96116.63;4962080;28;20230;-84
2021/12/01 09:58:47;;;;;;;3.30;1.50;;;;;;;20.15;47.07;96138.94;4951619;28;20223;-84
2021/12/01 10:01:16;;;;;;;2.63;1.50;;;;;;;20.12;46.83;96132.91;4978412;28;20249;-84
2021/12/01 10:03:44;;;;;;;2.80;1.50;;;;;;;20.01;47.34;96104.72;4991366;28;20227;-84
2021/12/01 10:06:13;;;;;;;3.90;1.30;;;;;;;20.00;47.38;96100.47;4961168;28;20476;-84
2021/12/01 10:08:41;;;;;;;1.40;1.27;;;;;;;19.80;47.55;96066.19;4947496;28;20198;-84
2021/12/01 10:11:25;;;;;;;1.77;1.40;;;;;;;19.99;47.92;96091.13;4977562;28;20242;-85
2021/12/01 10:14:03;;;;;;;1.47;1.30;;;;;;;19.92;48.11;96077.44;4957969;28;20242;-84
2021/12/01 10:16:31;;;;;;;3.30;1.40;;;;;;;20.07;48.18;96099.69;4983357;28;20227;-84
2021/12/01 10:18:59;;;;;;;2.73;1.40;;;;;;;19.88;48.26;96073.13;4981962;28;20234;-85
2021/12/01 10:21:29;;;;;;;2.70;1.43;;;;;;;20.11;48.51;96098.91;4979180;28;20195;-84
2021/12/01 10:23:57;;;;;;;2.50;1.43;;;;;;;20.01;48.59;96073.28;4991265;28;20314;-84
2021/12/01 10:26:31;;;;;;;2.40;1.40;;;;;;;19.63;48.66;96001.44;4959784;28;20294;-83
2021/12/01 10:29:00;;;;;;;2.00;1.40;;;;;;;19.89;48.64;96030.63;4976339;28;20225;-84
2021/12/01 10:31:34;;;;;;;2.10;1.40;;;;;;;20.08;48.82;96062.31;4963231;28;20203;-84
2021/12/01 10:34:32;;;;;;;4.37;1.83;;;;;;;20.08;48.71;96057.22;4999631;23;20233;-79
2021/12/01 10:37:11;;;;;;;1.63;1.30;;;;;;;20.08;48.93;96045.31;4950351;28;20242;-79
2021/12/01 10:39:38;;;;;;;1.90;1.50;;;;;;;19.93;49.16;96024.75;4969289;28;20301;-80
2021/12/01 10:42:07;;;;;;;1.30;1.20;;;;;;;19.45;49.12;95928.16;4946448;28;20226;-79
2021/12/01 10:44:34;;;;;;;2.17;1.30;;;;;;;19.49;49.04;95919.75;4949871;28;20252;-80
2021/12/01 10:47:09;;;;;;;4.77;1.57;;;;;;;18.68;49.11;95772.72;4964751;28;20224;-80
2021/12/01 10:49:43;;;;;;;2.37;1.50;;;;;;;20.10;49.35;96007.94;4970313;28;20293;-80
2021/12/01 10:52:26;;;;;;;1.97;1.40;;;;;;;20.10;49.33;95997.72;4979079;28;20292;-80
2021/12/01 10:55:12;;;;;;;1.90;1.30;;;;;;;19.79;49.42;95940.47;4968895;28;20318;-80
2021/12/01 10:57:41;;;;;;;2.70;1.40;;;;;;;19.27;49.47;95846.44;4968167;28;20216;-79
2021/12/01 11:00:13;;;;;;;2.13;1.50;;;;;;;19.85;49.67;95935.44;4969916;28;20631;-80
2021/12/01 11:02:40;;;;;;;2.10;1.43;;;;;;;19.31;49.09;95832.06;4953740;28;20653;-81
2021/12/01 11:05:07;;;;;;;1.60;1.23;;;;;;;19.31;49.49;95819.31;4953928;28;20577;-80
2021/12/01 11:07:34;;;;;;;2.27;1.30;;;;;;;20.14;49.70;95965.50;4953706;28;20504;-80
2021/12/01 11:10:18;;;;;;;2.30;1.30;;;;;;;18.64;49.61;95704.81;4969586;28;20235;-80
2021/12/01 11:12:55;;;;;;;2.00;1.40;;;;;;;20.13;49.70;95954.44;4930683;28;20330;-81
2021/12/01 11:15:23;;;;;;;1.57;1.40;;;;;;;19.79;49.37;95878.44;4958465;28;20403;-80
2021/12/01 11:17:50;;;;;;;1.67;1.33;;;;;;;20.11;49.61;95929.75;4967164;28;20252;-81
2021/12/01 11:20:45;;;;;;;2.13;1.30;;;;;;;20.11;49.55;95914.44;4967125;28;20237;-81
2021/12/01 11:23:11;;;;;;;1.40;1.30;;;;;;;20.10;49.59;95900.81;4964754;28;20231;-81
2021/12/01 11:25:39;;;;;;;1.90;1.40;;;;;;;20.10;49.47;95893.16;4970322;28;20220;-79
2021/12/01 11:28:12;;;;;;;3.13;1.30;;;;;;;19.79;49.67;95830.00;4966071;28;20223;-80
2021/12/01 11:30:40;;;;;;;1.37;1.27;;;;;;;19.31;49.69;95755.66;4937825;28;20211;-80
2021/12/01 11:33:13;;;;;;;1.73;1.23;;;;;;;20.11;49.74;95883.84;4965970;28;20664;-81
2021/12/01 11:35:41;;;;;;;1.33;1.23;;;;;;;19.58;49.67;95812.84;4982688;28;20314;-79
2021/12/01 11:38:09;;;;;;;1.53;1.40;;;;;;;19.62;49.68;95791.63;4930167;28;20299;-80
2021/12/01 11:40:35;;;;;;;2.07;1.40;;;;;;;18.87;49.67;95661.00;4937563;28;20290;-76
2021/12/01 11:43:02;;;;;;;2.10;1.40;;;;;;;19.90;49.70;95818.22;4934061;28;20200;-80
2021/12/01 11:45:29;;;;;;;1.50;1.33;;;;;;;20.12;49.76;95844.72;4952674;28;20230;-81